Bei Facebook empfehlenBei Twitter postenGoogle plusPinterest

Das Wetter im Erzgebirge am 29.12.2016

Wetter und Klima am 29.12.2016 Holzhau im Erzgebirge (630m ü.NN)
Letzte gemessene Temperatur und Uhrzeit der Messung23:45:00 Uhr-3.10 °C
Temperatur (Maximum / Höchstwert) und Uhrzeit der Messung12:00:00 Uhr1.90 °C
Temperatur (Minimum / Tiefstwert) und Uhrzeit der Messung23:45:00-3.10 °C
Errechneter Absolutwert der Temperaturschwankungen zwischen Tmin und Tmax des Tages5.00 K
Errechnete Tagesmitteltemperatur0.17500 °C
Gesamt - Niederschlag des Tages (in flüssiger Form)0.52 Liter / m²
Luftdruck (Maximum / Höchstwert) und Zeitpunkt der Messung10:45:00 Uhr1035.70 hPa
Luftdruck (Minimum / Tiefstwert) und Zeitpunkt der Messung21:15:00 Uhr1033.20 hPa
Errechneter Absolutwert der Luftdruckschwankungen des Tages2.50 hPa
Höchste gemessene Windgeschwindigkeit und Uhrzeit der Messung23:45:00 Uhr0.00 km/h
Errechnete Windhäufigkeit in Relation zu den Messwerten des Tages0.00000 %
Niedrigste Windkühle (Windchill) und Zeitpunkt der Messung23:45:00 Uhr-3.10 °C
Taupunkt (Maximum / Höchstwert) und Uhrzeit der Messung12:00:00 Uhr1.60 °C
Taupunkt (Minimum / Tiefstwert) und Uhrzeit der Messung23:45:00-3.70 °C
Anzahl der automatisch eingelesenen Messwerte 96

Detaillierte Wetter- und Klima- Messwerte für den 29.12.2016 in Holzhau im Erzgebirge (630m ü.NN)
ZeitTemperaturLuftdruckRel. LuftfeuchteWindWindrichtungWindchillTaupunktNiederschlag l/m²
23:45:00-3.10 °C1033.40 hPa96.00 %-3.70 °C0.52
23:30:00-2.80 °C1033.50 hPa96.00 %-3.40 °C0.52
23:15:00-2.80 °C1033.50 hPa96.00 %-3.40 °C0.52
23:00:00-2.60 °C1033.60 hPa96.00 %-3.20 °C0.52
22:45:00-2.20 °C1033.50 hPa96.00 %-2.80 °C0.52
22:30:00-1.90 °C1033.30 hPa96.00 %-2.50 °C0.52
22:15:00-1.80 °C1033.30 hPa96.00 %-2.40 °C0.52
22:00:00-1.80 °C1033.30 hPa96.00 %-2.40 °C0.52
21:45:00-1.70 °C1033.40 hPa96.00 %-2.30 °C0.52
21:30:00-1.70 °C1033.40 hPa97.00 %-2.20 °C0.52
21:15:00-1.60 °C1033.20 hPa96.00 %-2.20 °C0.52
21:00:00-1.50 °C1033.20 hPa97.00 %-2.00 °C0.52
20:45:00-1.10 °C1033.60 hPa96.00 %-1.70 °C0.52
20:30:00-0.70 °C1033.80 hPa97.00 %-1.20 °C0.52
20:15:00-0.20 °C1033.80 hPa97.00 %-0.70 °C0.52
20:00:000.10 °C1033.90 hPa97.00 %-0.30 °C0.52
19:45:000.20 °C1033.80 hPa97.00 %-0.20 °C0.52
19:30:000.30 °C1033.80 hPa97.00 %-0.10 °C0.52
19:15:000.20 °C1033.80 hPa97.00 %-0.20 °C0.52
19:00:000.30 °C1034.00 hPa97.00 %-0.10 °C0.52
18:45:000.30 °C1033.90 hPa97.00 %-0.10 °C0.52
18:30:000.40 °C1033.80 hPa97.00 %0.00 °C0.52
18:15:000.30 °C1033.90 hPa97.00 %-0.10 °C0.52
18:00:000.30 °C1034.00 hPa97.00 %-0.10 °C0.52
17:45:000.30 °C1033.90 hPa97.00 %-0.10 °C0.52
17:30:000.40 °C1033.90 hPa97.00 %0.00 °C0.52
17:15:000.40 °C1034.10 hPa97.00 %0.00 °C0.52
17:00:000.40 °C1034.10 hPa97.00 %0.00 °C0.52
16:45:000.40 °C1034.10 hPa97.00 %0.00 °C0.52
16:30:000.60 °C1034.20 hPa97.00 %0.20 °C0.52
16:15:000.80 °C1034.30 hPa97.00 %0.40 °C0.52
16:00:000.90 °C1034.50 hPa97.00 %0.50 °C0.52
15:45:001.00 °C1034.60 hPa97.00 %0.60 °C0.52
15:30:001.10 °C1034.60 hPa97.00 %0.70 °C0.52
15:15:001.20 °C1034.60 hPa97.00 %0.80 °C0.52
15:00:001.30 °C1034.70 hPa97.00 %0.90 °C0.52
14:45:001.30 °C1034.70 hPa97.00 %0.90 °C0.52
14:30:001.30 °C1034.50 hPa97.00 %0.90 °C0.52
14:15:001.30 °C1034.50 hPa97.00 %0.90 °C0.52
14:00:001.50 °C1034.60 hPa97.00 %1.10 °C0.52
13:45:001.40 °C1034.70 hPa98.00 %1.10 °C0.52
13:30:001.30 °C1034.80 hPa97.00 %0.90 °C0.52
13:15:001.60 °C1034.80 hPa98.00 %1.30 °C0.52
13:00:001.70 °C1035.10 hPa98.00 %1.40 °C0.52
12:45:001.70 °C1035.10 hPa98.00 %1.40 °C0.52
12:30:001.70 °C1035.00 hPa98.00 %1.40 °C0.52
12:15:001.80 °C1035.40 hPa98.00 %1.50 °C0.52
12:00:001.90 °C1035.40 hPa98.00 %1.60 °C0.52
11:45:001.70 °C1035.40 hPa98.00 %1.40 °C0.52
11:30:001.50 °C1035.50 hPa98.00 %1.20 °C0.52
11:15:001.40 °C1035.40 hPa98.00 %1.10 °C0.52
11:00:001.30 °C1035.60 hPa98.00 %1.00 °C 
10:45:001.00 °C1035.70 hPa98.00 %0.70 °C 
10:30:000.80 °C1035.70 hPa98.00 %0.50 °C 
10:15:000.80 °C1035.50 hPa98.00 %0.50 °C 
10:00:000.60 °C1035.50 hPa97.00 %0.20 °C 
09:45:000.40 °C1035.50 hPa97.00 %0.00 °C 
09:30:000.10 °C1035.30 hPa97.00 %-0.30 °C 
09:15:000.00 °C1035.50 hPa97.00 %-0.50 °C 
09:00:00-0.10 °C1035.30 hPa97.00 %-0.60 °C 
08:45:00-0.10 °C1035.00 hPa97.00 %-0.60 °C 
08:30:000.00 °C1035.20 hPa97.00 %-0.50 °C 
08:15:000.10 °C1035.10 hPa97.00 %-0.30 °C 
08:00:000.10 °C1034.90 hPa97.00 %-0.30 °C 
07:45:000.20 °C1034.90 hPa97.00 %-0.20 °C 
07:30:000.30 °C1034.80 hPa97.00 %-0.10 °C 
07:15:000.30 °C1035.00 hPa97.00 %-0.10 °C 
07:00:000.30 °C1034.70 hPa97.00 %-0.10 °C 
06:45:000.20 °C1034.70 hPa97.00 %-0.20 °C 
06:30:000.20 °C1034.70 hPa97.00 %-0.20 °C 
06:15:000.10 °C1034.60 hPa97.00 %-0.30 °C 
06:00:000.10 °C1034.60 hPa97.00 %-0.30 °C 
05:45:000.10 °C1034.70 hPa97.00 %-0.30 °C 
05:30:000.10 °C1034.50 hPa97.00 %-0.30 °C 
05:15:000.10 °C1034.60 hPa97.00 %-0.30 °C 
05:00:000.10 °C1034.60 hPa97.00 %-0.30 °C 
04:45:000.10 °C1034.50 hPa97.00 %-0.30 °C 
04:30:000.10 °C1034.60 hPa97.00 %-0.30 °C 
04:15:000.10 °C1034.60 hPa97.00 %-0.30 °C 
04:00:000.10 °C1034.80 hPa97.00 %-0.30 °C 
03:45:000.10 °C1034.50 hPa97.00 %-0.30 °C 
03:30:00-0.10 °C1034.50 hPa97.00 %-0.60 °C 
03:15:00-0.10 °C1034.50 hPa97.00 %-0.60 °C 
03:00:00-0.10 °C1034.60 hPa97.00 %-0.60 °C 
02:45:00-0.10 °C1034.60 hPa97.00 %-0.60 °C 
02:30:00-0.10 °C1034.60 hPa97.00 %-0.60 °C 
02:15:00-0.10 °C1034.60 hPa97.00 %-0.60 °C 
02:00:00-0.10 °C1034.70 hPa97.00 %-0.60 °C 
01:45:00-0.10 °C1034.50 hPa97.00 %-0.60 °C 
01:30:000.10 °C1034.50 hPa97.00 %-0.30 °C 
01:15:000.20 °C1034.50 hPa97.00 %-0.20 °C 
01:00:000.30 °C1034.60 hPa97.00 %-0.10 °C 
00:45:000.50 °C1034.80 hPa97.00 %0.10 °C 
00:30:000.60 °C1034.70 hPa98.00 %0.30 °C 
00:15:000.70 °C1034.60 hPa98.00 %0.40 °C 
00:00:000.80 °C1034.60 hPa98.00 %0.50 °C 

Permanenter Link zu dieser Seite: Wetter im Erzgebirge am 29.12.2016
Performance-Info: Die Erstellung der Seite / Statistik(en) / Tabelle(n) erforderte 5 Datenbankserver-Abfrage(n) und dauerte 123 Millisekunden. (Dieser Messwert ist von der Gesamt-Auslastung des Servers abhängig.)
Erzgebirge - Wetter | Erzgebirge - Wetter (Mobilgeräte) | Komplette Klimadatenbank